KLND/LND METAR and TAF weather

Enter ICAO airport designator
Station Type Date Time Source
KLND METAR 2020/07/05 16:53 UTC NOAA

KLND 051653Z AUTO 10SM CLR 26/05 A3012 RMK AO2 SLP124 T02560050


Station Type Date Time Source
KLND Decoded METAR 2020/07/05 16:53 UTC NOAA

LANDER HUNT FIELD, WY, United States (KLND) 42-49N 108-44W 1694M
Jul 05, 2020 - 12:53 PM EDT / 2020.07.05 1653 UTC
Visibility: 10 mile(s):0
Sky conditions: clear
Temperature: 78.1 F (25.6 C)
Dew Point: 41.0 F (5.0 C)
Relative Humidity: 26%
Pressure (altimeter): 30.12 in. Hg (1019 hPa)
ob: KLND 051653Z AUTO 10SM CLR 26/05 A3012 RMK AO2 SLP124 T02560050
cycle: 17

Station Type Date Time Source
KLND TAF 2020/07/05 18:27 UTC NOAA

TAF KLND 051724Z 0518/0618 27005KT P6SM SKC
FM052000 32010G18KT P6SM FEW150
FM060300 26008KT P6SM SKC
FM061000 VRB04KT P6SM SKC

Example: see airport list